Time;durP1;ratioP1;P1;durP2;ratioP2;P2;SDS_P1;SDS_P2;PMS_P1;PMS_P2;Temp;Humidity;BMP_temperature;BMP_pressure;BME280_temperature;BME280_humidity;BME280_pressure;Samples;Min_cycle;Max_cycle;Signal;HPM_P1;HPM_P2
2022/06/07 00:00:21;;;;;;;5.67;2.40;;;19.80;99.90;;;;;;6157848;23;20422;-88
2022/06/07 00:02:49;;;;;;;9.30;2.90;;;19.80;99.90;;;;;;6161711;23;20412;-91
2022/06/07 00:05:17;;;;;;;4.60;2.70;;;19.80;99.90;;;;;;6167972;23;20420;-91
2022/06/07 00:07:44;;;;;;;4.20;2.53;;;19.90;99.90;;;;;;6159175;23;20423;-91
2022/06/07 00:10:16;;;;;;;8.83;2.90;;;19.80;99.90;;;;;;6162514;23;20497;-91
2022/06/07 00:12:43;;;;;;;5.87;2.77;;;19.90;99.90;;;;;;6164181;23;20399;-92
2022/06/07 00:15:10;;;;;;;5.87;2.73;;;19.80;99.90;;;;;;6161354;23;20418;-91
2022/06/07 00:17:37;;;;;;;5.27;3.17;;;19.90;99.90;;;;;;6163002;23;20467;-92
2022/06/07 00:20:06;;;;;;;3.30;2.10;;;19.80;99.90;;;;;;6181211;23;20412;-91
2022/06/07 00:22:33;;;;;;;4.70;3.03;;;19.90;99.90;;;;;;6168193;23;20408;-90
2022/06/07 00:25:00;;;;;;;5.20;2.53;;;19.80;99.90;;;;;;6160379;23;20547;-90
2022/06/07 00:27:28;;;;;;;4.57;2.60;;;19.80;99.90;;;;;;6159044;23;20768;-90
2022/06/07 00:29:55;;;;;;;3.80;2.30;;;19.80;99.90;;;;;;6160016;23;20416;-90
2022/06/07 00:32:23;;;;;;;4.93;2.67;;;19.70;99.90;;;;;;6159896;23;20494;-91
2022/06/07 00:34:50;;;;;;;4.43;2.70;;;19.70;99.90;;;;;;6166301;23;20462;-90
2022/06/07 00:37:17;;;;;;;5.10;2.47;;;19.60;99.90;;;;;;6160296;23;20968;-90
2022/06/07 00:39:44;;;;;;;4.90;2.53;;;19.60;99.90;;;;;;6165231;23;20480;-90
2022/06/07 00:42:11;;;;;;;4.47;2.77;;;19.60;99.90;;;;;;6174801;23;20447;-90
2022/06/07 00:44:43;;;;;;;4.90;2.40;;;19.60;99.90;;;;;;6174067;23;20427;-90
2022/06/07 00:47:12;;;;;;;8.30;2.70;;;19.60;99.90;;;;;;6161632;23;20471;-92
2022/06/07 00:49:43;;;;;;;4.90;2.33;;;19.60;99.90;;;;;;6164837;23;20485;-91
2022/06/07 00:52:11;;;;;;;4.60;2.10;;;19.60;99.90;;;;;;6166420;23;20400;-91
2022/06/07 00:54:38;;;;;;;3.60;2.23;;;19.50;99.90;;;;;;6162812;23;20800;-91
2022/06/07 00:57:05;;;;;;;4.40;2.80;;;19.60;99.90;;;;;;6159876;23;20447;-90
2022/06/07 00:59:33;;;;;;;4.50;2.17;;;19.40;99.90;;;;;;6172042;23;20442;-91
2022/06/07 01:02:01;;;;;;;5.27;1.90;;;19.50;99.90;;;;;;6172937;23;20463;-90
2022/06/07 01:04:28;;;;;;;4.40;2.20;;;19.50;99.90;;;;;;6174626;23;20403;-91
2022/06/07 01:12:28;;;;;;;3.93;2.17;;;19.40;99.90;;;;;;6161133;23;20922;-92
2022/06/07 01:14:55;;;;;;;5.60;2.40;;;19.50;99.90;;;;;;6160056;23;20447;-91
2022/06/07 01:17:23;;;;;;;3.60;2.10;;;19.40;99.90;;;;;;6158130;23;20519;-91
2022/06/07 01:19:50;;;;;;;4.27;2.20;;;19.40;99.90;;;;;;6169140;23;20471;-91
2022/06/07 01:22:19;;;;;;;4.63;2.27;;;19.30;99.90;;;;;;6167523;23;20495;-91
2022/06/07 01:24:46;;;;;;;4.10;2.10;;;19.30;99.90;;;;;;6164433;23;20418;-91
2022/06/07 01:27:13;;;;;;;5.30;1.90;;;19.30;99.90;;;;;;6161984;23;20443;-90
2022/06/07 01:29:42;;;;;;;6.10;1.90;;;19.40;99.90;;;;;;6159893;23;20395;-90
2022/06/07 01:32:11;;;;;;;4.13;2.13;;;19.50;99.90;;;;;;6159165;23;20515;-89
2022/06/07 01:34:42;;;;;;;3.30;1.80;;;19.30;99.90;;;;;;6158115;23;20467;-90
2022/06/07 01:37:11;;;;;;;4.30;2.03;;;19.50;99.90;;;;;;6161415;23;20787;-90
2022/06/07 01:42:21;;;;;;;3.80;2.23;;;19.30;99.90;;;;;;6093828;23;20395;-91
2022/06/07 01:44:49;;;;;;;4.57;2.17;;;19.20;99.90;;;;;;6159780;23;20945;-91
2022/06/07 01:47:18;;;;;;;6.37;2.57;;;19.10;99.90;;;;;;6177200;23;20463;-89
2022/06/07 01:49:45;;;;;;;5.23;2.27;;;19.00;99.90;;;;;;6179938;23;20379;-90
2022/06/07 01:52:14;;;;;;;7.03;2.30;;;19.00;99.90;;;;;;6168531;23;20403;-90
2022/06/07 01:54:42;;;;;;;3.70;2.30;;;19.10;99.90;;;;;;6168046;23;20448;-90
2022/06/07 01:57:10;;;;;;;4.03;1.90;;;19.00;99.90;;;;;;6164577;23;20432;-89
2022/06/07 01:59:38;;;;;;;4.10;1.90;;;19.10;99.90;;;;;;6162046;23;20450;-91
2022/06/07 02:02:06;;;;;;;4.37;1.90;;;18.90;99.90;;;;;;6160660;23;20403;-91
2022/06/07 02:04:35;;;;;;;3.20;1.60;;;18.90;99.90;;;;;;6158754;23;20435;-91
2022/06/07 02:07:03;;;;;;;3.60;1.80;;;18.90;99.90;;;;;;6164482;23;20423;-89
2022/06/07 02:09:30;;;;;;;5.03;2.00;;;18.90;99.90;;;;;;6159174;23;20404;-91
2022/06/07 02:11:58;;;;;;;3.40;1.70;;;18.80;99.90;;;;;;6159184;23;20481;-90
2022/06/07 02:14:25;;;;;;;7.30;1.90;;;18.80;99.90;;;;;;6159387;23;20471;-91
2022/06/07 02:16:52;;;;;;;4.47;1.90;;;18.80;99.90;;;;;;6162251;23;20495;-90
2022/06/07 02:19:18;;;;;;;3.73;2.00;;;18.80;99.90;;;;;;6172868;23;20830;-90
2022/06/07 02:21:46;;;;;;;3.00;1.20;;;18.70;99.90;;;;;;6160620;23;20399;-90
2022/06/07 02:24:13;;;;;;;8.50;1.80;;;18.50;99.90;;;;;;6159133;23;20495;-90
2022/06/07 02:26:44;;;;;;;5.37;2.10;;;18.50;99.90;;;;;;6159815;23;20471;-90
2022/06/07 02:29:16;;;;;;;5.80;1.87;;;18.50;99.90;;;;;;6159317;23;20437;-90
2022/06/07 02:31:47;;;;;;;5.37;2.53;;;18.40;99.90;;;;;;6159339;23;20398;-91
2022/06/07 02:34:15;;;;;;;3.40;1.63;;;18.40;99.90;;;;;;6159493;23;20853;-90
2022/06/07 02:36:46;;;;;;;3.40;1.70;;;18.30;99.90;;;;;;6171778;23;21058;-90
2022/06/07 02:39:13;;;;;;;5.13;2.23;;;18.20;99.90;;;;;;6161193;23;20419;-90
2022/06/07 02:41:42;;;;;;;4.73;1.50;;;18.10;99.90;;;;;;6160009;23;20381;-90
2022/06/07 02:44:09;;;;;;;3.37;1.90;;;18.20;99.90;;;;;;6159598;23;20453;-88
2022/06/07 02:46:38;;;;;;;3.20;1.80;;;18.10;99.90;;;;;;6171557;23;20548;-89
2022/06/07 02:49:05;;;;;;;3.83;1.53;;;18.10;99.90;;;;;;6198972;23;20381;-89
2022/06/07 02:51:32;;;;;;;3.53;1.80;;;18.00;99.90;;;;;;6204402;23;20413;-90
2022/06/07 02:53:59;;;;;;;3.90;1.97;;;18.10;99.90;;;;;;6197589;23;20507;-89
2022/06/07 02:56:26;;;;;;;3.57;1.90;;;18.20;99.90;;;;;;6203475;23;20419;-88
2022/06/07 02:58:53;;;;;;;4.80;2.20;;;18.10;99.90;;;;;;6184333;23;20407;-89
2022/06/07 03:01:20;;;;;;;4.47;1.97;;;18.10;99.90;;;;;;6174565;23;20435;-89
2022/06/07 03:03:52;;;;;;;5.20;1.90;;;18.10;99.90;;;;;;6183915;23;20435;-87
2022/06/07 03:06:18;;;;;;;3.30;1.80;;;18.10;99.90;;;;;;6174573;23;20515;-88
2022/06/07 03:08:48;;;;;;;6.50;1.90;;;18.10;99.90;;;;;;6167491;23;20477;-87
2022/06/07 03:11:15;;;;;;;4.70;1.90;;;18.10;99.90;;;;;;6168379;23;20433;-88
2022/06/07 03:13:42;;;;;;;4.13;1.73;;;18.10;99.90;;;;;;6167186;23;20399;-88
2022/06/07 03:16:09;;;;;;;4.33;2.13;;;18.10;99.90;;;;;;6171641;23;20414;-86
2022/06/07 03:18:36;;;;;;;8.07;1.90;;;18.10;99.90;;;;;;6178629;23;20419;-89
2022/06/07 03:21:05;;;;;;;3.90;1.90;;;18.20;99.90;;;;;;6183627;23;20495;-88
2022/06/07 03:23:32;;;;;;;5.70;1.90;;;18.20;99.90;;;;;;6170334;23;20418;-89
2022/06/07 03:26:07;;;;;;;3.80;1.90;;;18.20;99.90;;;;;;6167777;23;20479;-88
2022/06/07 03:28:35;;;;;;;6.63;2.77;;;18.10;99.90;;;;;;6172101;23;20893;-89
2022/06/07 03:31:07;;;;;;;4.73;1.53;;;18.10;99.90;;;;;;6172114;23;20468;-88
2022/06/07 03:33:35;;;;;;;3.93;2.03;;;18.10;99.90;;;;;;6178538;23;20423;-88
2022/06/07 03:36:09;;;;;;;5.30;1.97;;;18.10;99.90;;;;;;6169380;23;20954;-87
2022/06/07 03:38:36;;;;;;;3.27;1.77;;;18.10;99.90;;;;;;6167335;23;20399;-88
2022/06/07 03:41:04;;;;;;;4.83;1.73;;;18.10;99.90;;;;;;6165556;23;20895;-88
2022/06/07 03:43:31;;;;;;;5.53;1.70;;;18.10;99.90;;;;;;6165068;23;20466;-88
2022/06/07 03:46:06;;;;;;;3.50;1.77;;;18.10;99.90;;;;;;6167009;23;20385;-88
2022/06/07 03:48:33;;;;;;;3.40;1.50;;;18.10;99.90;;;;;;6171907;23;20395;-89
2022/06/07 03:51:00;;;;;;;4.00;1.40;;;18.00;99.90;;;;;;6174308;23;20391;-87
2022/06/07 03:53:29;;;;;;;3.10;1.30;;;18.00;99.90;;;;;;6172114;23;20450;-88
2022/06/07 03:55:58;;;;;;;2.90;1.20;;;18.00;99.90;;;;;;6172901;23;20526;-89
2022/06/07 03:58:25;;;;;;;3.40;1.20;;;18.00;99.90;;;;;;6173754;23;20412;-89
2022/06/07 04:00:53;;;;;;;3.63;1.60;;;18.10;99.90;;;;;;6172084;23;20422;-89
2022/06/07 04:03:20;;;;;;;3.40;1.50;;;18.30;99.90;;;;;;6168155;23;20479;-88
2022/06/07 04:05:48;;;;;;;3.60;1.83;;;18.40;99.90;;;;;;6167457;23;20411;-88
2022/06/07 04:08:14;;;;;;;4.53;1.63;;;18.40;99.90;;;;;;6169840;23;20507;-88
2022/06/07 04:10:54;;;;;;;4.13;2.03;;;18.40;99.90;;;;;;6166579;23;20916;-88
2022/06/07 04:13:23;;;;;;;3.93;1.77;;;18.40;99.90;;;;;;6169815;23;20392;-87
2022/06/07 04:15:51;;;;;;;3.23;1.77;;;18.40;99.90;;;;;;6168852;23;20463;-88
2022/06/07 04:18:19;;;;;;;3.97;1.43;;;18.40;99.90;;;;;;6166947;23;20394;-88
2022/06/07 04:20:46;;;;;;;3.20;1.40;;;18.50;99.90;;;;;;6163925;23;20399;-88
2022/06/07 04:23:17;;;;;;;3.03;1.17;;;18.50;99.90;;;;;;6163410;23;20415;-88
2022/06/07 04:25:45;;;;;;;4.93;1.40;;;18.60;99.90;;;;;;6165384;23;20454;-88
2022/06/07 04:28:14;;;;;;;3.70;1.77;;;18.40;99.90;;;;;;6162878;23;20947;-89
2022/06/07 04:30:45;;;;;;;4.90;1.30;;;18.40;99.90;;;;;;6165498;23;20399;-89
2022/06/07 04:33:12;;;;;;;3.13;1.40;;;18.40;99.90;;;;;;6165077;23;20416;-89
2022/06/07 04:35:39;;;;;;;3.77;1.73;;;18.40;99.90;;;;;;6164771;23;20458;-88
2022/06/07 04:38:08;;;;;;;3.20;1.27;;;18.40;99.90;;;;;;6178394;23;20439;-89
2022/06/07 04:40:35;;;;;;;3.50;1.60;;;18.30;99.90;;;;;;6177041;23;20454;-89
2022/06/07 04:43:24;;;;;;;4.00;1.80;;;18.30;99.90;;;;;;6162774;23;20426;-88
2022/06/07 04:46:08;;;;;;;4.63;1.50;;;18.40;99.90;;;;;;6153515;23;20471;-89
2022/06/07 04:48:35;;;;;;;7.57;2.03;;;18.30;99.90;;;;;;6159552;23;20423;-89
2022/06/07 04:51:04;;;;;;;4.33;1.60;;;18.40;99.90;;;;;;6168646;23;20470;-89
2022/06/07 04:53:32;;;;;;;5.10;1.37;;;18.30;99.90;;;;;;6163467;23;20470;-89
2022/06/07 04:55:59;;;;;;;3.10;1.50;;;18.30;99.90;;;;;;6166558;23;20472;-89
2022/06/07 04:58:28;;;;;;;3.67;2.00;;;18.40;99.90;;;;;;6162144;23;20480;-89
2022/06/07 05:00:55;;;;;;;3.40;1.70;;;18.30;99.90;;;;;;6161055;23;20432;-89
2022/06/07 05:03:22;;;;;;;6.10;1.57;;;18.40;99.90;;;;;;6163315;23;20396;-88
2022/06/07 05:05:49;;;;;;;4.83;1.87;;;18.50;99.90;;;;;;6168412;23;20439;-89
2022/06/07 05:08:17;;;;;;;7.13;1.97;;;18.40;99.90;;;;;;6175751;23;20399;-88
2022/06/07 05:10:44;;;;;;;4.80;2.00;;;18.50;99.90;;;;;;6170300;23;20891;-87
2022/06/07 05:13:12;;;;;;;5.93;1.80;;;18.60;99.90;;;;;;6165708;23;20416;-88
2022/06/07 05:15:40;;;;;;;7.60;2.00;;;18.60;99.90;;;;;;6164256;23;20439;-88
2022/06/07 05:18:10;;;;;;;4.57;2.00;;;18.50;99.90;;;;;;6164551;23;20926;-88
2022/06/07 05:20:38;;;;;;;3.83;2.00;;;18.60;99.90;;;;;;6164559;23;20396;-88
2022/06/07 05:23:08;;;;;;;5.37;1.90;;;18.50;99.90;;;;;;6168207;23;20411;-88
2022/06/07 05:25:35;;;;;;;4.13;1.80;;;18.50;99.90;;;;;;6179507;23;20431;-89
2022/06/07 05:28:02;;;;;;;7.60;2.17;;;18.40;99.90;;;;;;6181247;23;20478;-88
2022/06/07 05:30:31;;;;;;;3.50;1.50;;;18.40;99.90;;;;;;6173133;23;20479;-88
2022/06/07 05:33:00;;;;;;;4.60;2.03;;;18.30;99.90;;;;;;6166731;23;20439;-88
2022/06/07 05:35:27;;;;;;;3.97;1.70;;;18.30;99.90;;;;;;6163354;23;20440;-89
2022/06/07 05:37:56;;;;;;;4.20;1.80;;;18.30;99.90;;;;;;6163769;23;20495;-89
2022/06/07 05:40:27;;;;;;;6.20;1.87;;;18.40;99.90;;;;;;6168982;23;20446;-89
2022/06/07 05:42:54;;;;;;;4.60;1.70;;;18.50;99.90;;;;;;6170713;23;20455;-89
2022/06/07 05:48:22;;;;;;;3.60;1.63;;;18.60;99.90;;;;;;6136420;23;20435;-89
2022/06/07 05:50:50;;;;;;;4.53;2.40;;;18.60;99.90;;;;;;6178099;23;20406;-88
2022/06/07 05:53:18;;;;;;;4.90;1.70;;;18.70;99.90;;;;;;6178023;23;20422;-89
2022/06/07 05:55:49;;;;;;;3.67;1.50;;;18.80;99.90;;;;;;6183723;23;20458;-90
2022/06/07 05:58:16;;;;;;;3.63;1.70;;;18.90;99.90;;;;;;6182398;23;20411;-88
2022/06/07 06:00:43;;;;;;;6.37;2.20;;;18.90;99.90;;;;;;6179908;23;20384;-89
2022/06/07 06:03:11;;;;;;;5.47;1.90;;;19.00;99.90;;;;;;6172177;23;20422;-89
2022/06/07 06:05:45;;;;;;;3.70;1.43;;;19.00;99.90;;;;;;6168568;23;20408;-89
2022/06/07 06:11:09;;;;;;;4.60;1.87;;;19.20;99.90;;;;;;6176730;23;20379;-90
2022/06/07 06:13:37;;;;;;;4.60;2.20;;;19.30;99.90;;;;;;6171601;23;20408;-90
2022/06/07 06:16:10;;;;;;;3.20;1.27;;;19.30;99.90;;;;;;6169278;23;20447;-90
2022/06/07 06:18:37;;;;;;;5.23;2.07;;;19.40;99.90;;;;;;6181605;23;20397;-89
2022/06/07 06:21:07;;;;;;;4.50;1.73;;;19.50;99.90;;;;;;6185052;23;20426;-89
2022/06/07 06:23:35;;;;;;;5.50;2.07;;;19.40;99.90;;;;;;6176122;23;20424;-90
2022/06/07 06:26:02;;;;;;;4.57;1.80;;;19.50;99.90;;;;;;6173833;23;20430;-89
2022/06/07 06:28:30;;;;;;;8.33;1.93;;;19.60;99.90;;;;;;6169081;23;20396;-89
2022/06/07 06:30:57;;;;;;;4.40;1.70;;;19.60;99.90;;;;;;6170615;23;20426;-89
2022/06/07 06:33:30;;;;;;;5.37;1.80;;;19.60;99.90;;;;;;6168948;23;20420;-88
2022/06/07 06:36:02;;;;;;;3.23;1.57;;;19.30;99.90;;;;;;6168059;23;20501;-90
2022/06/07 06:38:31;;;;;;;3.73;1.67;;;19.30;99.90;;;;;;6170738;23;20407;-89
2022/06/07 06:40:59;;;;;;;4.77;2.10;;;19.40;99.90;;;;;;6167962;23;20446;-89
2022/06/07 06:43:29;;;;;;;4.10;1.70;;;19.50;99.90;;;;;;6168373;23;20468;-89
2022/06/07 06:46:04;;;;;;;9.17;1.90;;;19.40;99.90;;;;;;6172464;23;20407;-90
2022/06/07 06:48:33;;;;;;;4.90;1.90;;;19.60;99.90;;;;;;6168483;23;20435;-89
2022/06/07 06:51:01;;;;;;;4.40;2.27;;;19.70;99.90;;;;;;6167181;23;20454;-90
2022/06/07 06:53:30;;;;;;;3.77;1.57;;;19.80;99.90;;;;;;6181533;23;20403;-89
2022/06/07 06:56:13;;;;;;;4.83;1.70;;;19.80;99.90;;;;;;6183930;23;20435;-89
2022/06/07 06:58:42;;;;;;;3.63;1.60;;;19.90;99.90;;;;;;6176885;23;20446;-90
2022/06/07 07:01:15;;;;;;;3.73;1.50;;;19.80;99.90;;;;;;6172573;23;20423;-91
2022/06/07 07:03:44;;;;;;;3.87;2.10;;;19.90;99.90;;;;;;6171720;23;20475;-89
2022/06/07 07:06:15;;;;;;;4.50;1.37;;;20.10;99.90;;;;;;6172174;23;20459;-89
2022/06/07 07:08:46;;;;;;;3.87;1.73;;;20.10;99.90;;;;;;6171235;23;20494;-89
2022/06/07 07:11:31;;;;;;;3.63;1.50;;;20.10;99.90;;;;;;6183204;23;20427;-90
2022/06/07 07:14:01;;;;;;;4.27;1.90;;;20.10;99.90;;;;;;6182626;23;20399;-89
2022/06/07 07:16:34;;;;;;;6.60;1.57;;;20.20;99.90;;;;;;6177710;23;20486;-88
2022/06/07 07:19:04;;;;;;;5.23;1.50;;;20.30;99.90;;;;;;6169427;23;20423;-89
2022/06/07 07:21:37;;;;;;;4.23;1.60;;;20.40;99.90;;;;;;6173508;23;20765;-88
2022/06/07 07:24:12;;;;;;;4.37;1.70;;;20.40;99.90;;;;;;6174857;23;20376;-88
2022/06/07 07:26:42;;;;;;;3.87;1.70;;;20.20;99.90;;;;;;6172775;23;20420;-89
2022/06/07 07:29:09;;;;;;;4.40;1.50;;;20.20;99.90;;;;;;6176591;23;20858;-90
2022/06/07 07:31:39;;;;;;;3.87;1.70;;;20.30;99.90;;;;;;6174738;23;20787;-89
2022/06/07 07:34:08;;;;;;;5.17;1.30;;;20.40;99.90;;;;;;6167227;23;20416;-89
2022/06/07 07:36:43;;;;;;;6.43;1.50;;;20.60;99.90;;;;;;6170809;23;20474;-89
2022/06/07 07:39:13;;;;;;;3.50;1.43;;;20.70;99.90;;;;;;6172464;23;20372;-88
2022/06/07 07:41:42;;;;;;;4.30;1.30;;;20.50;99.90;;;;;;6170111;23;20863;-89
2022/06/07 07:44:13;;;;;;;5.10;1.53;;;20.70;99.90;;;;;;6169732;23;20471;-89
2022/06/07 07:46:43;;;;;;;3.30;1.60;;;20.90;99.90;;;;;;6165387;23;20435;-89
2022/06/07 07:49:12;;;;;;;4.23;1.53;;;21.10;99.90;;;;;;6168880;23;20431;-89
2022/06/07 07:51:44;;;;;;;5.27;1.50;;;21.30;99.90;;;;;;6180547;23;20396;-89
2022/06/07 07:54:20;;;;;;;3.50;1.40;;;21.60;99.90;;;;;;6168681;23;20935;-88
2022/06/07 07:56:55;;;;;;;4.33;1.30;;;21.80;98.90;;;;;;6167552;23;20457;-89
2022/06/07 07:59:22;;;;;;;3.60;1.70;;;21.50;99.60;;;;;;6169285;23;20465;-89
2022/06/07 08:01:52;;;;;;;6.43;2.00;;;21.20;99.90;;;;;;6170068;23;20506;-90
2022/06/07 08:04:19;;;;;;;4.00;1.50;;;21.20;99.90;;;;;;6173957;23;20380;-89
2022/06/07 08:06:47;;;;;;;4.27;1.33;;;21.30;99.90;;;;;;6171584;23;20422;-88
2022/06/07 08:09:22;;;;;;;4.30;1.23;;;21.30;98.40;;;;;;6178674;23;20446;-88
2022/06/07 08:11:49;;;;;;;3.97;1.70;;;21.40;98.40;;;;;;6169152;23;20415;-89
2022/06/07 08:14:19;;;;;;;5.17;1.93;;;21.70;97.90;;;;;;6166780;23;20414;-88
2022/06/07 08:16:49;;;;;;;6.60;1.63;;;21.80;97.40;;;;;;6165640;23;20475;-88
2022/06/07 08:19:18;;;;;;;3.00;1.40;;;22.00;96.70;;;;;;6165614;23;20415;-88
2022/06/07 08:21:47;;;;;;;4.20;1.50;;;22.20;96.60;;;;;;6164514;23;20819;-89
2022/06/07 08:24:18;;;;;;;3.77;1.40;;;22.10;96.30;;;;;;6166241;23;20419;-88
2022/06/07 08:26:48;;;;;;;3.53;1.33;;;21.90;95.70;;;;;;6166508;23;20950;-87
2022/06/07 08:29:16;;;;;;;4.37;1.40;;;21.90;96.40;;;;;;6176348;23;20410;-88
2022/06/07 08:31:44;;;;;;;3.67;1.47;;;22.10;96.60;;;;;;6179986;23;20467;-88
2022/06/07 08:39:46;;;;;;;3.73;1.60;;;22.10;95.10;;;;;;6173744;23;20380;-88
2022/06/07 08:42:21;;;;;;;4.17;1.57;;;22.20;95.40;;;;;;6168000;23;20470;-89
2022/06/07 08:44:51;;;;;;;5.73;1.47;;;22.30;95.00;;;;;;6165443;23;20452;-87
2022/06/07 08:47:24;;;;;;;3.70;1.67;;;22.30;94.30;;;;;;6174782;23;20549;-87
2022/06/07 08:49:52;;;;;;;5.37;1.90;;;22.20;94.80;;;;;;6192900;23;20407;-87
2022/06/07 08:52:23;;;;;;;3.20;1.63;;;22.00;96.20;;;;;;6195012;23;20433;-87
2022/06/07 08:54:52;;;;;;;3.53;1.70;;;22.00;96.70;;;;;;6194041;23;20864;-88
2022/06/07 08:57:22;;;;;;;4.33;1.70;;;21.80;97.00;;;;;;6184203;23;20451;-87
2022/06/07 08:59:51;;;;;;;3.97;1.30;;;21.90;96.70;;;;;;6161713;23;20422;-88
2022/06/07 09:02:53;;;;;;;3.10;1.40;;;22.00;96.00;;;;;;6168574;23;20402;-87
2022/06/07 09:05:20;;;;;;;3.90;1.70;;;22.00;95.20;;;;;;6171943;23;20486;-87
2022/06/07 09:07:47;;;;;;;3.90;2.00;;;22.00;95.50;;;;;;6174320;23;20454;-87
2022/06/07 09:13:05;;;;;;;3.23;1.43;;;22.00;96.20;;;;;;6160171;23;20482;-88
2022/06/07 09:15:35;;;;;;;4.00;1.50;;;22.30;94.80;;;;;;6159553;23;20403;-88
2022/06/07 09:18:05;;;;;;;3.33;1.60;;;22.60;93.70;;;;;;6161371;23;20488;-88
2022/06/07 09:20:37;;;;;;;3.53;1.30;;;22.70;93.50;;;;;;6161427;23;20420;-88
2022/06/07 09:23:11;;;;;;;3.60;1.27;;;22.80;93.30;;;;;;6159836;23;20415;-88
2022/06/07 09:25:42;;;;;;;5.87;1.43;;;22.80;93.40;;;;;;6160047;23;20388;-87
2022/06/07 09:28:16;;;;;;;4.00;1.50;;;22.70;93.40;;;;;;6159363;23;20435;-89
2022/06/07 09:30:45;;;;;;;3.80;1.17;;;22.90;92.90;;;;;;6164315;23;20478;-88
2022/06/07 09:33:22;;;;;;;4.33;1.40;;;23.00;92.70;;;;;;6158844;23;20419;-88
2022/06/07 09:35:52;;;;;;;3.93;1.27;;;22.90;93.00;;;;;;6162193;23;20517;-88
2022/06/07 09:38:31;;;;;;;2.77;1.10;;;22.80;92.90;;;;;;6159951;23;20467;-88
2022/06/07 09:41:36;;;;;;;4.17;1.40;;;22.60;92.60;;;;;;6161574;23;20399;-89
2022/06/07 09:43:55;;;;;;;2.90;1.23;;;22.50;92.10;;;;;;6163232;23;20410;-89
2022/06/07 09:46:26;;;;;;;3.20;1.40;;;22.30;92.10;;;;;;6162587;23;20435;-89
2022/06/07 09:48:54;;;;;;;2.80;1.20;;;22.30;92.20;;;;;;6164761;23;20413;-88
2022/06/07 09:51:24;;;;;;;5.57;1.50;;;22.30;92.90;;;;;;6159159;23;20419;-88
2022/06/07 09:54:00;;;;;;;3.93;2.00;;;22.10;93.40;;;;;;6158980;23;20442;-88
2022/06/07 09:56:38;;;;;;;3.73;1.50;;;22.10;92.80;;;;;;6169221;23;20458;-88
2022/06/07 09:59:29;;;;;;;3.93;1.40;;;22.10;93.20;;;;;;6160617;23;20415;-88
2022/06/07 10:02:00;;;;;;;4.33;1.40;;;22.20;93.20;;;;;;6159138;23;20430;-89
2022/06/07 10:04:34;;;;;;;3.60;1.20;;;22.30;91.50;;;;;;6161822;23;20410;-88
2022/06/07 10:07:05;;;;;;;3.40;1.10;;;22.20;91.20;;;;;;6159826;23;20423;-88
2022/06/07 10:09:50;;;;;;;3.97;1.90;;;22.10;91.60;;;;;;6160102;23;20424;-88
2022/06/07 10:12:28;;;;;;;3.83;2.00;;;22.10;92.00;;;;;;6171403;23;20396;-88
2022/06/07 10:15:17;;;;;;;5.20;1.23;;;22.20;92.00;;;;;;6159623;23;20384;-88
2022/06/07 10:18:05;;;;;;;3.10;1.40;;;22.50;91.70;;;;;;6167888;23;20451;-88
2022/06/07 10:20:48;;;;;;;3.93;1.47;;;22.70;90.70;;;;;;6174233;23;20392;-87
2022/06/07 10:23:36;;;;;;;4.07;1.77;;;22.80;90.00;;;;;;6168424;23;20534;-88
2022/06/07 10:26:18;;;;;;;3.50;1.83;;;23.00;87.40;;;;;;6161620;23;20482;-88
2022/06/07 10:29:01;;;;;;;5.80;2.03;;;23.10;87.10;;;;;;6160499;23;20439;-88
2022/06/07 10:31:48;;;;;;;3.83;1.97;;;23.40;87.50;;;;;;6163448;23;20474;-88
2022/06/07 10:34:26;;;;;;;3.50;1.57;;;23.70;87.20;;;;;;6162669;23;20413;-88
2022/06/07 10:37:06;;;;;;;3.20;1.03;;;23.50;87.70;;;;;;6160504;23;20866;-88
2022/06/07 10:39:50;;;;;;;3.73;1.53;;;23.10;88.50;;;;;;6160490;23;20404;-88
2022/06/07 10:42:27;;;;;;;4.47;1.63;;;23.00;90.00;;;;;;6174829;23;20448;-88
2022/06/07 10:45:03;;;;;;;3.30;1.13;;;23.10;90.00;;;;;;6176063;23;20384;-88
2022/06/07 10:47:35;;;;;;;3.10;1.20;;;23.20;88.90;;;;;;6172521;23;20435;-87
2022/06/07 10:50:07;;;;;;;3.60;1.57;;;23.20;89.00;;;;;;6164053;23;20416;-88
2022/06/07 10:52:41;;;;;;;4.00;2.00;;;23.20;89.30;;;;;;6175059;23;20404;-88
2022/06/07 10:55:21;;;;;;;3.10;1.20;;;23.20;89.80;;;;;;6163917;23;20400;-87
2022/06/07 10:57:57;;;;;;;3.00;1.23;;;23.30;90.50;;;;;;6163304;23;20451;-87
2022/06/07 11:00:41;;;;;;;5.57;2.50;;;23.20;90.20;;;;;;6172991;23;20415;-88
2022/06/07 11:03:21;;;;;;;3.40;1.43;;;23.00;90.80;;;;;;6163134;23;20387;-88
2022/06/07 11:11:35;;;;;;;4.13;1.57;;;23.00;91.00;;;;;;6162413;23;20415;-88
2022/06/07 11:14:15;;;;;;;3.13;1.17;;;23.20;90.60;;;;;;6161136;23;20419;-88
2022/06/07 11:16:54;;;;;;;2.90;1.10;;;23.40;90.20;;;;;;6160423;23;20466;-88
2022/06/07 11:19:27;;;;;;;3.50;1.70;;;23.00;90.20;;;;;;6161828;23;20392;-88
2022/06/07 11:22:09;;;;;;;4.27;1.83;;;23.00;90.90;;;;;;6165169;23;20471;-87
2022/06/07 11:24:59;;;;;;;5.23;1.57;;;23.20;90.40;;;;;;6158685;23;20497;-89
2022/06/07 11:30:28;;;;;;;5.23;1.60;;;23.10;90.70;;;;;;6155635;23;20415;-88
2022/06/07 11:32:58;;;;;;;3.83;1.40;;;23.20;90.60;;;;;;6159046;23;20701;-87
2022/06/07 11:35:47;;;;;;;4.00;1.50;;;23.60;91.00;;;;;;6159359;23;20483;-88
2022/06/07 11:38:33;;;;;;;4.37;1.80;;;23.80;90.60;;;;;;6163555;23;20770;-88
2022/06/07 11:41:45;;;;;;;4.90;1.80;;;24.00;90.50;;;;;;6164544;23;20446;-88
2022/06/07 11:45:01;;;;;;;4.60;1.40;;;23.90;90.50;;;;;;6161861;23;20715;-88
2022/06/07 11:47:38;;;;;;;4.83;1.60;;;24.00;90.20;;;;;;6158841;23;20521;-88
2022/06/07 11:50:27;;;;;;;4.50;2.00;;;23.90;90.30;;;;;;6158763;23;20395;-88
2022/06/07 11:53:01;;;;;;;5.10;2.40;;;23.50;90.70;;;;;;6157589;23;20765;-88
2022/06/07 11:55:39;;;;;;;5.00;1.63;;;23.40;90.90;;;;;;6157253;23;20399;-88
2022/06/07 11:58:09;;;;;;;6.80;1.87;;;23.30;91.50;;;;;;6157636;23;20462;-88
2022/06/07 12:00:53;;;;;;;2.97;1.40;;;23.20;91.90;;;;;;6157861;23;20396;-88
2022/06/07 12:03:33;;;;;;;5.97;2.70;;;23.20;92.00;;;;;;6157043;23;20392;-88
2022/06/07 12:06:19;;;;;;;4.37;2.30;;;23.20;92.10;;;;;;6157906;23;20411;-88
2022/06/07 12:08:54;;;;;;;5.07;1.83;;;23.10;92.30;;;;;;6156105;23;20478;-88
2022/06/07 12:11:24;;;;;;;4.50;2.60;;;23.10;92.60;;;;;;6161392;23;20392;-88
2022/06/07 12:14:19;;;;;;;3.40;1.80;;;23.00;93.10;;;;;;6157044;23;20385;-88
2022/06/07 12:16:57;;;;;;;5.93;2.10;;;23.20;93.00;;;;;;6156614;23;20509;-88
2022/06/07 12:19:29;;;;;;;4.30;2.20;;;23.20;93.00;;;;;;6157302;23;20423;-88
2022/06/07 12:22:00;;;;;;;3.33;1.90;;;23.20;93.10;;;;;;6158865;23;20423;-89
2022/06/07 12:24:29;;;;;;;4.37;2.20;;;23.30;93.40;;;;;;6159747;23;20419;-88
2022/06/07 12:26:56;;;;;;;3.80;1.80;;;23.40;93.20;;;;;;6158319;23;20515;-89
2022/06/07 12:29:28;;;;;;;7.43;2.07;;;23.70;92.70;;;;;;6158189;23;20496;-89
2022/06/07 12:31:56;;;;;;;3.80;2.00;;;23.80;92.50;;;;;;6158684;23;20867;-89
2022/06/07 12:34:26;;;;;;;3.60;1.60;;;23.80;91.60;;;;;;6157998;23;20420;-88
2022/06/07 12:36:57;;;;;;;5.60;1.80;;;23.50;92.50;;;;;;6158633;23;20506;-89
2022/06/07 12:39:24;;;;;;;4.83;2.17;;;23.50;92.60;;;;;;6169207;23;20404;-88
2022/06/07 12:41:55;;;;;;;3.47;1.73;;;23.60;92.40;;;;;;6167291;23;20403;-88
2022/06/07 12:44:27;;;;;;;4.63;2.50;;;23.60;92.30;;;;;;6160030;23;20858;-89
2022/06/07 12:46:55;;;;;;;4.23;1.97;;;23.80;92.30;;;;;;6162952;23;20446;-87
2022/06/07 12:49:24;;;;;;;3.20;1.70;;;23.80;92.30;;;;;;6161120;23;20690;-87
2022/06/07 12:51:56;;;;;;;4.10;1.60;;;23.90;91.90;;;;;;6159765;23;20411;-89
2022/06/07 12:54:23;;;;;;;3.93;1.70;;;23.90;91.00;;;;;;6159124;23;20427;-89
2022/06/07 12:56:52;;;;;;;4.33;1.97;;;23.90;91.50;;;;;;6169140;23;20458;-89
2022/06/07 12:59:23;;;;;;;3.73;1.57;;;23.90;91.40;;;;;;6170731;23;20407;-88
2022/06/07 13:01:53;;;;;;;4.80;1.77;;;24.00;91.30;;;;;;6168177;23;20410;-88
2022/06/07 13:04:28;;;;;;;3.57;1.83;;;23.90;91.50;;;;;;6163646;23;20431;-88
2022/06/07 13:07:02;;;;;;;4.30;1.57;;;23.60;91.70;;;;;;6163673;23;20520;-89
2022/06/07 13:09:30;;;;;;;3.40;1.80;;;23.10;92.20;;;;;;6160458;23;20384;-88
2022/06/07 13:11:57;;;;;;;4.83;1.70;;;23.10;92.90;;;;;;6160007;23;20412;-88
2022/06/07 13:14:25;;;;;;;5.77;2.33;;;22.90;93.60;;;;;;6160470;23;20393;-88
2022/06/07 13:16:54;;;;;;;3.20;1.40;;;22.80;93.30;;;;;;6164307;23;20489;-89
2022/06/07 13:19:27;;;;;;;3.13;1.60;;;23.00;93.40;;;;;;6172920;23;20434;-88
2022/06/07 13:22:13;;;;;;;3.30;1.43;;;23.20;92.90;;;;;;6164638;23;20884;-89
2022/06/07 13:24:43;;;;;;;4.17;1.77;;;23.30;92.50;;;;;;6163149;23;20517;-89
2022/06/07 13:27:40;;;;;;;4.10;2.07;;;23.30;92.50;;;;;;6160904;23;20428;-88
2022/06/07 13:30:18;;;;;;;3.70;1.77;;;23.30;92.20;;;;;;6160490;23;20847;-88
2022/06/07 13:32:46;;;;;;;4.33;1.33;;;23.30;92.40;;;;;;6163412;23;20395;-89
2022/06/07 13:35:23;;;;;;;3.80;1.90;;;23.40;91.90;;;;;;6168784;23;20891;-88
2022/06/07 13:38:04;;;;;;;5.83;2.20;;;23.60;91.70;;;;;;6160886;23;20447;-88
2022/06/07 13:40:34;;;;;;;4.50;1.50;;;23.80;91.90;;;;;;6159986;23;20479;-89